sensor_id;sensor_type;location;lat;lon;timestamp;P1;durP1;ratioP1;P2;durP2;ratioP2
9328;SDS011;4703;48.748;19.142;2022-10-10T00:01:12;7.33;;;6.07;;
9328;SDS011;4703;48.748;19.142;2022-10-10T00:03:40;7.67;;;5.87;;
9328;SDS011;4703;48.748;19.142;2022-10-10T00:06:08;7.07;;;6.10;;
9328;SDS011;4703;48.748;19.142;2022-10-10T00:08:36;7.77;;;6.10;;
9328;SDS011;4703;48.748;19.142;2022-10-10T00:11:03;7.30;;;6.60;;
9328;SDS011;4703;48.748;19.142;2022-10-10T00:13:31;6.93;;;6.17;;
9328;SDS011;4703;48.748;19.142;2022-10-10T00:15:59;6.83;;;6.13;;
9328;SDS011;4703;48.748;19.142;2022-10-10T00:18:27;9.90;;;6.80;;
9328;SDS011;4703;48.748;19.142;2022-10-10T00:20:54;7.73;;;6.87;;
9328;SDS011;4703;48.748;19.142;2022-10-10T00:23:21;7.77;;;6.50;;
9328;SDS011;4703;48.748;19.142;2022-10-10T00:25:48;8.00;;;7.20;;
9328;SDS011;4703;48.748;19.142;2022-10-10T00:28:16;6.60;;;6.00;;
9328;SDS011;4703;48.748;19.142;2022-10-10T00:30:44;9.67;;;5.70;;
9328;SDS011;4703;48.748;19.142;2022-10-10T00:33:11;6.23;;;5.67;;
9328;SDS011;4703;48.748;19.142;2022-10-10T00:35:38;7.50;;;6.73;;
9328;SDS011;4703;48.748;19.142;2022-10-10T00:38:06;8.97;;;6.17;;
9328;SDS011;4703;48.748;19.142;2022-10-10T00:40:34;7.13;;;6.53;;
9328;SDS011;4703;48.748;19.142;2022-10-10T00:43:01;7.33;;;6.17;;
9328;SDS011;4703;48.748;19.142;2022-10-10T00:45:46;7.07;;;6.37;;
9328;SDS011;4703;48.748;19.142;2022-10-10T00:48:15;9.43;;;6.90;;
9328;SDS011;4703;48.748;19.142;2022-10-10T00:50:49;8.00;;;6.20;;
9328;SDS011;4703;48.748;19.142;2022-10-10T00:53:26;8.17;;;6.07;;
9328;SDS011;4703;48.748;19.142;2022-10-10T00:56:16;8.20;;;7.10;;
9328;SDS011;4703;48.748;19.142;2022-10-10T00:58:48;8.40;;;6.70;;
9328;SDS011;4703;48.748;19.142;2022-10-10T01:01:19;7.43;;;6.23;;
9328;SDS011;4703;48.748;19.142;2022-10-10T01:03:46;8.63;;;6.40;;
9328;SDS011;4703;48.748;19.142;2022-10-10T01:06:13;8.50;;;7.00;;
9328;SDS011;4703;48.748;19.142;2022-10-10T01:08:40;7.47;;;6.77;;
9328;SDS011;4703;48.748;19.142;2022-10-10T01:16:57;7.10;;;6.50;;
9328;SDS011;4703;48.748;19.142;2022-10-10T01:20:04;7.73;;;5.67;;
9328;SDS011;4703;48.748;19.142;2022-10-10T01:26:03;10.10;;;7.10;;
9328;SDS011;4703;48.748;19.142;2022-10-10T01:28:45;7.23;;;6.00;;
9328;SDS011;4703;48.748;19.142;2022-10-10T01:31:34;8.67;;;6.27;;
9328;SDS011;4703;48.748;19.142;2022-10-10T01:39:51;8.30;;;6.53;;
9328;SDS011;4703;48.748;19.142;2022-10-10T01:42:41;6.83;;;6.20;;
9328;SDS011;4703;48.748;19.142;2022-10-10T01:45:17;6.80;;;6.20;;
9328;SDS011;4703;48.748;19.142;2022-10-10T01:47:44;7.23;;;6.30;;
9328;SDS011;4703;48.748;19.142;2022-10-10T01:50:14;6.80;;;6.03;;
9328;SDS011;4703;48.748;19.142;2022-10-10T01:52:49;8.67;;;7.53;;
9328;SDS011;4703;48.748;19.142;2022-10-10T01:55:46;8.60;;;6.23;;
9328;SDS011;4703;48.748;19.142;2022-10-10T02:01:25;5.93;;;5.37;;
9328;SDS011;4703;48.748;19.142;2022-10-10T02:04:08;7.33;;;6.37;;
9328;SDS011;4703;48.748;19.142;2022-10-10T02:06:48;15.20;;;6.70;;
9328;SDS011;4703;48.748;19.142;2022-10-10T02:09:28;7.70;;;5.63;;
9328;SDS011;4703;48.748;19.142;2022-10-10T02:12:03;6.40;;;5.90;;
9328;SDS011;4703;48.748;19.142;2022-10-10T02:14:39;6.80;;;6.20;;
9328;SDS011;4703;48.748;19.142;2022-10-10T02:17:11;7.43;;;6.30;;
9328;SDS011;4703;48.748;19.142;2022-10-10T02:19:43;10.40;;;4.90;;
9328;SDS011;4703;48.748;19.142;2022-10-10T02:22:14;8.63;;;6.03;;
9328;SDS011;4703;48.748;19.142;2022-10-10T02:24:43;11.50;;;6.90;;
9328;SDS011;4703;48.748;19.142;2022-10-10T02:27:12;6.70;;;5.77;;
9328;SDS011;4703;48.748;19.142;2022-10-10T02:29:49;7.27;;;6.57;;
9328;SDS011;4703;48.748;19.142;2022-10-10T02:32:20;9.83;;;6.30;;
9328;SDS011;4703;48.748;19.142;2022-10-10T02:34:56;6.83;;;5.80;;
9328;SDS011;4703;48.748;19.142;2022-10-10T02:37:28;7.03;;;5.60;;
9328;SDS011;4703;48.748;19.142;2022-10-10T02:39:57;7.63;;;5.73;;
9328;SDS011;4703;48.748;19.142;2022-10-10T02:42:28;7.67;;;5.93;;
9328;SDS011;4703;48.748;19.142;2022-10-10T02:44:56;7.00;;;6.30;;
9328;SDS011;4703;48.748;19.142;2022-10-10T02:47:23;8.00;;;6.13;;
9328;SDS011;4703;48.748;19.142;2022-10-10T02:49:50;7.87;;;5.30;;
9328;SDS011;4703;48.748;19.142;2022-10-10T02:52:17;6.70;;;6.00;;
9328;SDS011;4703;48.748;19.142;2022-10-10T02:54:45;6.30;;;5.70;;
9328;SDS011;4703;48.748;19.142;2022-10-10T02:57:12;6.97;;;5.87;;
9328;SDS011;4703;48.748;19.142;2022-10-10T02:59:39;6.70;;;6.00;;
9328;SDS011;4703;48.748;19.142;2022-10-10T03:02:06;7.60;;;6.17;;
9328;SDS011;4703;48.748;19.142;2022-10-10T03:04:33;7.37;;;6.47;;
9328;SDS011;4703;48.748;19.142;2022-10-10T03:07:02;7.47;;;6.77;;
9328;SDS011;4703;48.748;19.142;2022-10-10T03:09:30;9.97;;;7.13;;
9328;SDS011;4703;48.748;19.142;2022-10-10T03:11:57;7.97;;;6.47;;
9328;SDS011;4703;48.748;19.142;2022-10-10T03:14:24;6.90;;;6.27;;
9328;SDS011;4703;48.748;19.142;2022-10-10T03:16:51;8.37;;;6.90;;
9328;SDS011;4703;48.748;19.142;2022-10-10T03:19:18;7.63;;;6.67;;
9328;SDS011;4703;48.748;19.142;2022-10-10T03:21:45;6.80;;;6.20;;
9328;SDS011;4703;48.748;19.142;2022-10-10T03:24:12;7.60;;;6.53;;
9328;SDS011;4703;48.748;19.142;2022-10-10T03:26:39;7.77;;;7.00;;
9328;SDS011;4703;48.748;19.142;2022-10-10T03:29:06;9.63;;;7.20;;
9328;SDS011;4703;48.748;19.142;2022-10-10T03:31:33;8.53;;;6.77;;
9328;SDS011;4703;48.748;19.142;2022-10-10T03:34:00;9.30;;;7.03;;
9328;SDS011;4703;48.748;19.142;2022-10-10T03:36:27;7.67;;;6.87;;
9328;SDS011;4703;48.748;19.142;2022-10-10T03:38:56;9.07;;;7.13;;
9328;SDS011;4703;48.748;19.142;2022-10-10T03:41:23;9.90;;;6.63;;
9328;SDS011;4703;48.748;19.142;2022-10-10T03:43:50;8.23;;;7.10;;
9328;SDS011;4703;48.748;19.142;2022-10-10T03:46:17;8.50;;;7.40;;
9328;SDS011;4703;48.748;19.142;2022-10-10T03:48:44;8.87;;;7.60;;
9328;SDS011;4703;48.748;19.142;2022-10-10T03:51:12;11.90;;;9.10;;
9328;SDS011;4703;48.748;19.142;2022-10-10T03:53:38;10.80;;;7.90;;
9328;SDS011;4703;48.748;19.142;2022-10-10T03:56:05;9.40;;;8.40;;
9328;SDS011;4703;48.748;19.142;2022-10-10T03:58:32;8.33;;;7.53;;
9328;SDS011;4703;48.748;19.142;2022-10-10T04:01:00;9.97;;;8.07;;
9328;SDS011;4703;48.748;19.142;2022-10-10T04:03:28;11.90;;;8.30;;
9328;SDS011;4703;48.748;19.142;2022-10-10T04:05:56;10.33;;;7.60;;
9328;SDS011;4703;48.748;19.142;2022-10-10T04:08:23;8.93;;;8.00;;
9328;SDS011;4703;48.748;19.142;2022-10-10T04:10:51;11.63;;;8.80;;
9328;SDS011;4703;48.748;19.142;2022-10-10T04:13:20;8.00;;;6.97;;
9328;SDS011;4703;48.748;19.142;2022-10-10T04:15:51;10.30;;;7.60;;
9328;SDS011;4703;48.748;19.142;2022-10-10T04:18:22;9.23;;;7.70;;
9328;SDS011;4703;48.748;19.142;2022-10-10T04:20:50;8.47;;;7.67;;
9328;SDS011;4703;48.748;19.142;2022-10-10T04:23:17;9.43;;;8.40;;
9328;SDS011;4703;48.748;19.142;2022-10-10T04:25:44;10.73;;;7.17;;
9328;SDS011;4703;48.748;19.142;2022-10-10T04:28:13;9.80;;;8.70;;
9328;SDS011;4703;48.748;19.142;2022-10-10T04:30:41;13.93;;;8.70;;
9328;SDS011;4703;48.748;19.142;2022-10-10T04:33:09;11.60;;;9.10;;
9328;SDS011;4703;48.748;19.142;2022-10-10T04:35:36;9.90;;;8.00;;
9328;SDS011;4703;48.748;19.142;2022-10-10T04:38:04;13.80;;;7.77;;
9328;SDS011;4703;48.748;19.142;2022-10-10T04:40:32;10.70;;;7.60;;
9328;SDS011;4703;48.748;19.142;2022-10-10T04:43:01;12.03;;;8.03;;
9328;SDS011;4703;48.748;19.142;2022-10-10T04:45:28;10.70;;;8.43;;
9328;SDS011;4703;48.748;19.142;2022-10-10T04:48:01;10.27;;;8.10;;
9328;SDS011;4703;48.748;19.142;2022-10-10T04:50:28;9.50;;;8.50;;
9328;SDS011;4703;48.748;19.142;2022-10-10T04:52:55;10.97;;;8.60;;
9328;SDS011;4703;48.748;19.142;2022-10-10T04:55:22;9.60;;;8.20;;
9328;SDS011;4703;48.748;19.142;2022-10-10T04:57:49;12.53;;;9.23;;
9328;SDS011;4703;48.748;19.142;2022-10-10T05:00:16;9.33;;;8.40;;
9328;SDS011;4703;48.748;19.142;2022-10-10T05:02:43;9.43;;;7.20;;
9328;SDS011;4703;48.748;19.142;2022-10-10T05:05:10;9.17;;;7.93;;
9328;SDS011;4703;48.748;19.142;2022-10-10T05:07:37;12.80;;;8.23;;
9328;SDS011;4703;48.748;19.142;2022-10-10T05:10:04;13.93;;;8.30;;
9328;SDS011;4703;48.748;19.142;2022-10-10T05:12:32;15.27;;;7.60;;
9328;SDS011;4703;48.748;19.142;2022-10-10T05:14:59;14.03;;;8.70;;
9328;SDS011;4703;48.748;19.142;2022-10-10T05:17:25;14.60;;;9.80;;
9328;SDS011;4703;48.748;19.142;2022-10-10T05:19:52;11.40;;;8.40;;
9328;SDS011;4703;48.748;19.142;2022-10-10T05:22:19;10.83;;;7.87;;
9328;SDS011;4703;48.748;19.142;2022-10-10T05:24:46;9.57;;;7.90;;
9328;SDS011;4703;48.748;19.142;2022-10-10T05:27:13;13.50;;;9.03;;
9328;SDS011;4703;48.748;19.142;2022-10-10T05:29:40;13.50;;;9.50;;
9328;SDS011;4703;48.748;19.142;2022-10-10T05:32:07;11.63;;;8.50;;
9328;SDS011;4703;48.748;19.142;2022-10-10T05:34:36;11.33;;;8.97;;
9328;SDS011;4703;48.748;19.142;2022-10-10T05:37:03;11.80;;;8.60;;
9328;SDS011;4703;48.748;19.142;2022-10-10T05:39:31;11.70;;;8.70;;
9328;SDS011;4703;48.748;19.142;2022-10-10T05:41:58;12.23;;;8.07;;
9328;SDS011;4703;48.748;19.142;2022-10-10T05:44:24;11.07;;;9.07;;
9328;SDS011;4703;48.748;19.142;2022-10-10T05:46:51;13.43;;;8.70;;
9328;SDS011;4703;48.748;19.142;2022-10-10T05:49:18;12.87;;;9.40;;
9328;SDS011;4703;48.748;19.142;2022-10-10T05:51:45;11.40;;;8.70;;
9328;SDS011;4703;48.748;19.142;2022-10-10T05:54:12;9.27;;;8.20;;
9328;SDS011;4703;48.748;19.142;2022-10-10T05:56:39;9.83;;;8.83;;
9328;SDS011;4703;48.748;19.142;2022-10-10T05:59:07;9.70;;;8.80;;
9328;SDS011;4703;48.748;19.142;2022-10-10T06:01:34;10.30;;;9.03;;
9328;SDS011;4703;48.748;19.142;2022-10-10T06:04:01;9.80;;;8.30;;
9328;SDS011;4703;48.748;19.142;2022-10-10T06:06:29;10.40;;;7.10;;
9328;SDS011;4703;48.748;19.142;2022-10-10T06:08:56;7.63;;;6.50;;
9328;SDS011;4703;48.748;19.142;2022-10-10T06:11:24;7.33;;;5.87;;
9328;SDS011;4703;48.748;19.142;2022-10-10T06:13:51;8.40;;;7.53;;
9328;SDS011;4703;48.748;19.142;2022-10-10T06:16:23;10.27;;;6.57;;
9328;SDS011;4703;48.748;19.142;2022-10-10T06:18:51;8.13;;;6.30;;
9328;SDS011;4703;48.748;19.142;2022-10-10T06:21:19;8.10;;;7.30;;
9328;SDS011;4703;48.748;19.142;2022-10-10T06:23:46;10.53;;;8.70;;
9328;SDS011;4703;48.748;19.142;2022-10-10T06:26:13;12.03;;;8.73;;
9328;SDS011;4703;48.748;19.142;2022-10-10T06:28:40;8.70;;;7.73;;
9328;SDS011;4703;48.748;19.142;2022-10-10T06:31:10;9.50;;;7.50;;
9328;SDS011;4703;48.748;19.142;2022-10-10T06:33:39;9.10;;;8.03;;
9328;SDS011;4703;48.748;19.142;2022-10-10T06:36:09;10.37;;;8.83;;
9328;SDS011;4703;48.748;19.142;2022-10-10T06:38:38;9.67;;;8.67;;
9328;SDS011;4703;48.748;19.142;2022-10-10T06:41:08;9.40;;;8.40;;
9328;SDS011;4703;48.748;19.142;2022-10-10T06:43:35;10.07;;;8.73;;
9328;SDS011;4703;48.748;19.142;2022-10-10T06:46:02;14.40;;;11.20;;
9328;SDS011;4703;48.748;19.142;2022-10-10T06:48:30;9.40;;;7.57;;
9328;SDS011;4703;48.748;19.142;2022-10-10T06:51:01;9.67;;;7.50;;
9328;SDS011;4703;48.748;19.142;2022-10-10T06:53:38;8.70;;;7.80;;
9328;SDS011;4703;48.748;19.142;2022-10-10T06:56:05;8.53;;;7.77;;
9328;SDS011;4703;48.748;19.142;2022-10-10T06:58:32;9.67;;;7.40;;
9328;SDS011;4703;48.748;19.142;2022-10-10T07:01:02;9.17;;;7.30;;
9328;SDS011;4703;48.748;19.142;2022-10-10T07:03:30;11.60;;;7.87;;
9328;SDS011;4703;48.748;19.142;2022-10-10T07:05:58;12.00;;;8.70;;
9328;SDS011;4703;48.748;19.142;2022-10-10T07:08:26;10.60;;;8.40;;
9328;SDS011;4703;48.748;19.142;2022-10-10T07:10:54;22.10;;;15.90;;
9328;SDS011;4703;48.748;19.142;2022-10-10T07:13:22;12.67;;;9.97;;
9328;SDS011;4703;48.748;19.142;2022-10-10T07:15:49;8.13;;;7.33;;
9328;SDS011;4703;48.748;19.142;2022-10-10T07:18:17;8.77;;;7.27;;
9328;SDS011;4703;48.748;19.142;2022-10-10T07:20:44;8.13;;;7.33;;
9328;SDS011;4703;48.748;19.142;2022-10-10T07:23:12;7.87;;;7.07;;
9328;SDS011;4703;48.748;19.142;2022-10-10T07:25:40;7.40;;;6.57;;
9328;SDS011;4703;48.748;19.142;2022-10-10T07:28:08;8.60;;;7.63;;
9328;SDS011;4703;48.748;19.142;2022-10-10T07:30:39;8.60;;;7.70;;
9328;SDS011;4703;48.748;19.142;2022-10-10T07:33:10;10.37;;;7.10;;
9328;SDS011;4703;48.748;19.142;2022-10-10T07:35:39;11.60;;;7.53;;
9328;SDS011;4703;48.748;19.142;2022-10-10T07:38:06;8.90;;;7.53;;
9328;SDS011;4703;48.748;19.142;2022-10-10T07:40:38;8.30;;;7.40;;
9328;SDS011;4703;48.748;19.142;2022-10-10T07:43:06;8.47;;;7.67;;
9328;SDS011;4703;48.748;19.142;2022-10-10T07:45:36;12.00;;;8.43;;
9328;SDS011;4703;48.748;19.142;2022-10-10T07:48:03;7.13;;;6.53;;
9328;SDS011;4703;48.748;19.142;2022-10-10T07:50:31;7.90;;;7.30;;
9328;SDS011;4703;48.748;19.142;2022-10-10T07:52:58;8.13;;;7.07;;
9328;SDS011;4703;48.748;19.142;2022-10-10T07:55:25;14.00;;;6.83;;
9328;SDS011;4703;48.748;19.142;2022-10-10T07:57:52;8.10;;;7.20;;
9328;SDS011;4703;48.748;19.142;2022-10-10T08:00:20;8.57;;;6.70;;
9328;SDS011;4703;48.748;19.142;2022-10-10T08:02:47;7.20;;;6.53;;
9328;SDS011;4703;48.748;19.142;2022-10-10T08:05:14;6.33;;;5.77;;
9328;SDS011;4703;48.748;19.142;2022-10-10T08:07:41;7.23;;;6.50;;
9328;SDS011;4703;48.748;19.142;2022-10-10T08:10:08;6.70;;;6.00;;
9328;SDS011;4703;48.748;19.142;2022-10-10T08:12:37;8.03;;;6.20;;
9328;SDS011;4703;48.748;19.142;2022-10-10T08:15:04;9.13;;;6.37;;
9328;SDS011;4703;48.748;19.142;2022-10-10T08:17:32;7.70;;;6.20;;
9328;SDS011;4703;48.748;19.142;2022-10-10T08:19:59;6.83;;;6.13;;
9328;SDS011;4703;48.748;19.142;2022-10-10T08:22:27;6.27;;;5.73;;
9328;SDS011;4703;48.748;19.142;2022-10-10T08:24:53;9.50;;;6.70;;
9328;SDS011;4703;48.748;19.142;2022-10-10T08:27:20;5.87;;;5.37;;
9328;SDS011;4703;48.748;19.142;2022-10-10T08:29:47;6.70;;;6.10;;
9328;SDS011;4703;48.748;19.142;2022-10-10T08:32:14;9.50;;;6.40;;
9328;SDS011;4703;48.748;19.142;2022-10-10T08:34:41;6.50;;;5.90;;
9328;SDS011;4703;48.748;19.142;2022-10-10T08:37:08;6.43;;;5.83;;
9328;SDS011;4703;48.748;19.142;2022-10-10T08:39:35;6.63;;;6.03;;
9328;SDS011;4703;48.748;19.142;2022-10-10T08:42:02;8.43;;;7.70;;
9328;SDS011;4703;48.748;19.142;2022-10-10T08:47:16;7.97;;;7.17;;
9328;SDS011;4703;48.748;19.142;2022-10-10T08:50:00;7.60;;;7.00;;
9328;SDS011;4703;48.748;19.142;2022-10-10T08:52:44;7.30;;;6.67;;
9328;SDS011;4703;48.748;19.142;2022-10-10T08:55:25;7.07;;;6.37;;
9328;SDS011;4703;48.748;19.142;2022-10-10T08:58:00;8.83;;;7.47;;
9328;SDS011;4703;48.748;19.142;2022-10-10T09:00:41;6.97;;;5.80;;
9328;SDS011;4703;48.748;19.142;2022-10-10T09:03:47;8.80;;;5.93;;
9328;SDS011;4703;48.748;19.142;2022-10-10T09:12:51;6.77;;;6.17;;
9328;SDS011;4703;48.748;19.142;2022-10-10T09:18:27;7.20;;;5.50;;
9328;SDS011;4703;48.748;19.142;2022-10-10T09:21:16;6.13;;;5.53;;
9328;SDS011;4703;48.748;19.142;2022-10-10T09:26:36;6.27;;;5.63;;
9328;SDS011;4703;48.748;19.142;2022-10-10T09:29:18;5.90;;;5.40;;
9328;SDS011;4703;48.748;19.142;2022-10-10T09:34:44;4.90;;;4.50;;
9328;SDS011;4703;48.748;19.142;2022-10-10T09:37:17;6.53;;;5.23;;
9328;SDS011;4703;48.748;19.142;2022-10-10T09:43:13;5.33;;;4.80;;
9328;SDS011;4703;48.748;19.142;2022-10-10T09:45:45;5.60;;;5.10;;
9328;SDS011;4703;48.748;19.142;2022-10-10T09:48:19;10.53;;;6.57;;
9328;SDS011;4703;48.748;19.142;2022-10-10T09:51:14;21.20;;;17.17;;
9328;SDS011;4703;48.748;19.142;2022-10-10T09:53:44;13.40;;;10.30;;
9328;SDS011;4703;48.748;19.142;2022-10-10T09:56:17;6.20;;;5.70;;
9328;SDS011;4703;48.748;19.142;2022-10-10T09:58:52;6.03;;;5.43;;
9328;SDS011;4703;48.748;19.142;2022-10-10T10:01:21;7.30;;;5.40;;
9328;SDS011;4703;48.748;19.142;2022-10-10T10:07:03;7.00;;;5.10;;
9328;SDS011;4703;48.748;19.142;2022-10-10T10:09:53;7.83;;;6.30;;
9328;SDS011;4703;48.748;19.142;2022-10-10T10:12:35;6.20;;;5.43;;
9328;SDS011;4703;48.748;19.142;2022-10-10T10:15:06;7.10;;;5.73;;
9328;SDS011;4703;48.748;19.142;2022-10-10T10:17:44;6.20;;;5.70;;
9328;SDS011;4703;48.748;19.142;2022-10-10T10:21:07;6.30;;;5.70;;
9328;SDS011;4703;48.748;19.142;2022-10-10T10:23:04;6.10;;;5.63;;
9328;SDS011;4703;48.748;19.142;2022-10-10T10:25:58;25.10;;;22.90;;
9328;SDS011;4703;48.748;19.142;2022-10-10T10:29:25;6.87;;;6.27;;
9328;SDS011;4703;48.748;19.142;2022-10-10T10:32:01;7.27;;;4.47;;
9328;SDS011;4703;48.748;19.142;2022-10-10T10:38:01;21.17;;;16.47;;
9328;SDS011;4703;48.748;19.142;2022-10-10T10:44:19;7.63;;;6.93;;
9328;SDS011;4703;48.748;19.142;2022-10-10T10:47:05;5.50;;;4.90;;
9328;SDS011;4703;48.748;19.142;2022-10-10T10:50:01;5.57;;;4.83;;
9328;SDS011;4703;48.748;19.142;2022-10-10T10:52:57;5.03;;;4.63;;
9328;SDS011;4703;48.748;19.142;2022-10-10T11:04:38;6.03;;;5.53;;
9328;SDS011;4703;48.748;19.142;2022-10-10T11:22:13;4.73;;;4.23;;
9328;SDS011;4703;48.748;19.142;2022-10-10T11:24:53;5.70;;;4.87;;
9328;SDS011;4703;48.748;19.142;2022-10-10T11:28:17;4.93;;;4.50;;
9328;SDS011;4703;48.748;19.142;2022-10-10T11:31:04;4.57;;;4.17;;
9328;SDS011;4703;48.748;19.142;2022-10-10T11:33:44;4.63;;;4.23;;
9328;SDS011;4703;48.748;19.142;2022-10-10T11:36:24;5.60;;;5.10;;
9328;SDS011;4703;48.748;19.142;2022-10-10T11:39:02;4.87;;;4.57;;
9328;SDS011;4703;48.748;19.142;2022-10-10T11:42:02;5.23;;;4.83;;
9328;SDS011;4703;48.748;19.142;2022-10-10T11:44:42;5.43;;;4.93;;
9328;SDS011;4703;48.748;19.142;2022-10-10T11:49:57;5.50;;;5.10;;
9328;SDS011;4703;48.748;19.142;2022-10-10T11:58:24;5.00;;;4.50;;
9328;SDS011;4703;48.748;19.142;2022-10-10T12:01:41;5.17;;;4.77;;
9328;SDS011;4703;48.748;19.142;2022-10-10T12:03:56;5.27;;;4.77;;
9328;SDS011;4703;48.748;19.142;2022-10-10T12:06:28;6.10;;;5.70;;
9328;SDS011;4703;48.748;19.142;2022-10-10T12:08:59;6.10;;;5.50;;
9328;SDS011;4703;48.748;19.142;2022-10-10T12:14:14;7.40;;;6.80;;
9328;SDS011;4703;48.748;19.142;2022-10-10T12:16:45;7.90;;;6.10;;
9328;SDS011;4703;48.748;19.142;2022-10-10T12:22:00;8.40;;;5.60;;
9328;SDS011;4703;48.748;19.142;2022-10-10T12:24:34;5.80;;;5.40;;
9328;SDS011;4703;48.748;19.142;2022-10-10T12:27:09;5.63;;;5.13;;
9328;SDS011;4703;48.748;19.142;2022-10-10T12:34:56;6.20;;;4.90;;
9328;SDS011;4703;48.748;19.142;2022-10-10T12:37:29;5.90;;;5.40;;
9328;SDS011;4703;48.748;19.142;2022-10-10T12:47:56;5.60;;;5.10;;
9328;SDS011;4703;48.748;19.142;2022-10-10T12:50:39;5.07;;;4.67;;
9328;SDS011;4703;48.748;19.142;2022-10-10T12:55:39;6.27;;;5.77;;
9328;SDS011;4703;48.748;19.142;2022-10-10T12:58:18;5.80;;;5.30;;
9328;SDS011;4703;48.748;19.142;2022-10-10T13:01:03;5.93;;;5.40;;
9328;SDS011;4703;48.748;19.142;2022-10-10T13:03:35;5.57;;;5.10;;
9328;SDS011;4703;48.748;19.142;2022-10-10T13:06:16;7.30;;;5.50;;
9328;SDS011;4703;48.748;19.142;2022-10-10T13:09:07;5.30;;;4.80;;
9328;SDS011;4703;48.748;19.142;2022-10-10T13:12:16;5.27;;;4.87;;
9328;SDS011;4703;48.748;19.142;2022-10-10T13:14:54;5.93;;;5.17;;
9328;SDS011;4703;48.748;19.142;2022-10-10T13:19:55;5.77;;;4.60;;
9328;SDS011;4703;48.748;19.142;2022-10-10T13:22:29;5.40;;;5.10;;
9328;SDS011;4703;48.748;19.142;2022-10-10T13:24:58;4.80;;;4.50;;
9328;SDS011;4703;48.748;19.142;2022-10-10T13:27:30;5.03;;;4.57;;
9328;SDS011;4703;48.748;19.142;2022-10-10T13:30:00;5.23;;;4.83;;
9328;SDS011;4703;48.748;19.142;2022-10-10T13:32:33;4.93;;;4.47;;
9328;SDS011;4703;48.748;19.142;2022-10-10T13:35:03;5.00;;;4.60;;
9328;SDS011;4703;48.748;19.142;2022-10-10T13:37:33;5.40;;;5.00;;
9328;SDS011;4703;48.748;19.142;2022-10-10T13:40:01;6.20;;;5.27;;
9328;SDS011;4703;48.748;19.142;2022-10-10T13:42:32;5.03;;;4.50;;
9328;SDS011;4703;48.748;19.142;2022-10-10T13:56:02;5.40;;;4.90;;
9328;SDS011;4703;48.748;19.142;2022-10-10T14:01:39;5.40;;;5.00;;
9328;SDS011;4703;48.748;19.142;2022-10-10T14:07:04;5.40;;;5.00;;
9328;SDS011;4703;48.748;19.142;2022-10-10T14:09:54;6.50;;;5.67;;
9328;SDS011;4703;48.748;19.142;2022-10-10T14:12:39;6.33;;;5.10;;
9328;SDS011;4703;48.748;19.142;2022-10-10T14:15:29;5.00;;;4.60;;
9328;SDS011;4703;48.748;19.142;2022-10-10T14:18:00;5.03;;;4.67;;
9328;SDS011;4703;48.748;19.142;2022-10-10T14:20:49;5.23;;;4.77;;
9328;SDS011;4703;48.748;19.142;2022-10-10T14:23:18;6.17;;;5.57;;
9328;SDS011;4703;48.748;19.142;2022-10-10T14:25:46;5.60;;;5.10;;
9328;SDS011;4703;48.748;19.142;2022-10-10T14:28:15;4.47;;;4.17;;
9328;SDS011;4703;48.748;19.142;2022-10-10T14:30:50;5.40;;;4.90;;
9328;SDS011;4703;48.748;19.142;2022-10-10T14:33:17;5.73;;;5.23;;
9328;SDS011;4703;48.748;19.142;2022-10-10T14:35:46;35.90;;;28.93;;
9328;SDS011;4703;48.748;19.142;2022-10-10T14:38:15;32.97;;;25.17;;
9328;SDS011;4703;48.748;19.142;2022-10-10T14:40:43;20.20;;;17.70;;
9328;SDS011;4703;48.748;19.142;2022-10-10T14:43:12;7.30;;;6.70;;
9328;SDS011;4703;48.748;19.142;2022-10-10T14:45:39;5.63;;;4.73;;
9328;SDS011;4703;48.748;19.142;2022-10-10T14:48:06;5.83;;;4.97;;
9328;SDS011;4703;48.748;19.142;2022-10-10T14:50:36;5.80;;;5.33;;
9328;SDS011;4703;48.748;19.142;2022-10-10T14:53:07;5.70;;;5.23;;
9328;SDS011;4703;48.748;19.142;2022-10-10T14:55:33;5.67;;;5.17;;
9328;SDS011;4703;48.748;19.142;2022-10-10T14:58:01;5.33;;;4.93;;
9328;SDS011;4703;48.748;19.142;2022-10-10T15:00:28;4.67;;;4.33;;
9328;SDS011;4703;48.748;19.142;2022-10-10T15:02:55;4.90;;;4.50;;
9328;SDS011;4703;48.748;19.142;2022-10-10T15:05:22;5.63;;;5.13;;
9328;SDS011;4703;48.748;19.142;2022-10-10T15:07:49;5.20;;;4.80;;
9328;SDS011;4703;48.748;19.142;2022-10-10T15:10:18;4.80;;;4.40;;
9328;SDS011;4703;48.748;19.142;2022-10-10T15:12:59;5.23;;;4.83;;
9328;SDS011;4703;48.748;19.142;2022-10-10T15:15:26;6.30;;;4.73;;
9328;SDS011;4703;48.748;19.142;2022-10-10T15:17:53;5.17;;;4.77;;
9328;SDS011;4703;48.748;19.142;2022-10-10T15:20:23;5.77;;;5.37;;
9328;SDS011;4703;48.748;19.142;2022-10-10T15:23:02;5.10;;;4.63;;
9328;SDS011;4703;48.748;19.142;2022-10-10T15:25:32;5.90;;;5.30;;
9328;SDS011;4703;48.748;19.142;2022-10-10T15:28:00;5.93;;;4.93;;
9328;SDS011;4703;48.748;19.142;2022-10-10T15:30:28;5.93;;;5.40;;
9328;SDS011;4703;48.748;19.142;2022-10-10T15:32:56;6.90;;;6.40;;
9328;SDS011;4703;48.748;19.142;2022-10-10T15:35:23;6.10;;;5.60;;
9328;SDS011;4703;48.748;19.142;2022-10-10T15:37:51;5.63;;;5.20;;
9328;SDS011;4703;48.748;19.142;2022-10-10T15:40:20;7.40;;;6.50;;
9328;SDS011;4703;48.748;19.142;2022-10-10T15:42:48;6.50;;;5.93;;
9328;SDS011;4703;48.748;19.142;2022-10-10T15:45:17;5.80;;;5.40;;
9328;SDS011;4703;48.748;19.142;2022-10-10T15:48:04;6.37;;;5.80;;
9328;SDS011;4703;48.748;19.142;2022-10-10T15:50:31;7.17;;;6.57;;
9328;SDS011;4703;48.748;19.142;2022-10-10T15:53:04;6.50;;;5.90;;
9328;SDS011;4703;48.748;19.142;2022-10-10T15:55:31;7.40;;;6.70;;
9328;SDS011;4703;48.748;19.142;2022-10-10T15:57:58;6.90;;;6.33;;
9328;SDS011;4703;48.748;19.142;2022-10-10T16:00:25;8.40;;;7.50;;
9328;SDS011;4703;48.748;19.142;2022-10-10T16:02:52;6.30;;;5.80;;
9328;SDS011;4703;48.748;19.142;2022-10-10T16:05:19;11.13;;;9.30;;
9328;SDS011;4703;48.748;19.142;2022-10-10T16:07:46;10.57;;;9.57;;
9328;SDS011;4703;48.748;19.142;2022-10-10T16:10:14;12.67;;;11.47;;
9328;SDS011;4703;48.748;19.142;2022-10-10T16:12:41;12.07;;;10.87;;
9328;SDS011;4703;48.748;19.142;2022-10-10T16:15:08;14.97;;;13.50;;
9328;SDS011;4703;48.748;19.142;2022-10-10T16:17:35;14.80;;;13.27;;
9328;SDS011;4703;48.748;19.142;2022-10-10T16:20:03;15.13;;;13.80;;
9328;SDS011;4703;48.748;19.142;2022-10-10T16:22:30;15.00;;;13.40;;
9328;SDS011;4703;48.748;19.142;2022-10-10T16:24:58;15.57;;;13.93;;
9328;SDS011;4703;48.748;19.142;2022-10-10T16:27:45;16.70;;;15.10;;
9328;SDS011;4703;48.748;19.142;2022-10-10T16:30:12;16.10;;;14.40;;
9328;SDS011;4703;48.748;19.142;2022-10-10T16:32:39;19.23;;;16.03;;
9328;SDS011;4703;48.748;19.142;2022-10-10T16:35:08;19.93;;;16.63;;
9328;SDS011;4703;48.748;19.142;2022-10-10T16:37:37;18.03;;;15.67;;
9328;SDS011;4703;48.748;19.142;2022-10-10T16:40:04;19.40;;;17.40;;
9328;SDS011;4703;48.748;19.142;2022-10-10T16:42:32;18.70;;;16.70;;
9328;SDS011;4703;48.748;19.142;2022-10-10T16:44:59;18.20;;;16.23;;
9328;SDS011;4703;48.748;19.142;2022-10-10T16:47:29;20.10;;;18.07;;
9328;SDS011;4703;48.748;19.142;2022-10-10T16:49:56;20.63;;;18.53;;
9328;SDS011;4703;48.748;19.142;2022-10-10T16:52:23;20.70;;;17.87;;
9328;SDS011;4703;48.748;19.142;2022-10-10T16:54:50;19.53;;;16.37;;
9328;SDS011;4703;48.748;19.142;2022-10-10T16:57:17;18.17;;;16.40;;
9328;SDS011;4703;48.748;19.142;2022-10-10T16:59:45;19.47;;;17.43;;
9328;SDS011;4703;48.748;19.142;2022-10-10T17:02:12;18.80;;;16.90;;
9328;SDS011;4703;48.748;19.142;2022-10-10T17:04:39;18.33;;;16.57;;
9328;SDS011;4703;48.748;19.142;2022-10-10T17:07:06;20.43;;;18.30;;
9328;SDS011;4703;48.748;19.142;2022-10-10T17:09:33;18.23;;;16.20;;
9328;SDS011;4703;48.748;19.142;2022-10-10T17:12:00;18.90;;;16.90;;
9328;SDS011;4703;48.748;19.142;2022-10-10T17:14:27;20.33;;;17.43;;
9328;SDS011;4703;48.748;19.142;2022-10-10T17:16:54;19.07;;;17.07;;
9328;SDS011;4703;48.748;19.142;2022-10-10T17:19:38;17.57;;;15.77;;
9328;SDS011;4703;48.748;19.142;2022-10-10T17:22:05;18.43;;;16.53;;
9328;SDS011;4703;48.748;19.142;2022-10-10T17:24:32;16.93;;;15.30;;